createdAt,value
2018-09-19T00:00:03.557Z,18.55
2018-09-19T00:02:32.224Z,18.52
2018-09-19T00:05:01.019Z,18.54
2018-09-19T00:07:29.777Z,18.51
2018-09-19T00:09:58.373Z,18.46
2018-09-19T00:12:27.093Z,18.44
2018-09-19T00:14:55.702Z,18.43
2018-09-19T00:17:24.332Z,18.38
2018-09-19T00:19:52.944Z,18.39
2018-09-19T00:22:21.603Z,18.38
2018-09-19T00:24:50.273Z,18.39
2018-09-19T00:27:18.875Z,18.37
2018-09-19T00:29:47.670Z,18.38
2018-09-19T00:32:16.313Z,18.37
2018-09-19T00:34:45.051Z,18.36
2018-09-19T00:37:13.776Z,18.32
2018-09-19T00:39:42.445Z,18.29
2018-09-19T00:42:11.070Z,18.33
2018-09-19T00:44:40.056Z,18.30
2018-09-19T00:47:08.725Z,18.30
2018-09-19T00:49:37.459Z,18.31
2018-09-19T00:52:06.160Z,18.26
2018-09-19T00:54:35.024Z,18.23
2018-09-19T00:57:03.849Z,18.21
2018-09-19T00:59:32.553Z,18.15
2018-09-19T01:02:01.325Z,18.18
2018-09-19T01:04:29.992Z,18.18
2018-09-19T01:06:58.645Z,18.20
2018-09-19T01:09:27.344Z,18.20
2018-09-19T01:11:56.039Z,18.19
2018-09-19T01:14:25.380Z,18.17
2018-09-19T01:16:53.980Z,18.17
2018-09-19T01:19:22.622Z,18.18
2018-09-19T01:21:51.308Z,18.17
2018-09-19T01:24:20.099Z,18.15
2018-09-19T01:26:48.864Z,18.13
2018-09-19T01:29:17.493Z,18.14
2018-09-19T01:31:46.192Z,18.13
2018-09-19T01:34:14.796Z,18.13
2018-09-19T01:36:43.985Z,18.16
2018-09-19T01:39:12.998Z,18.17
2018-09-19T01:41:41.578Z,18.11
2018-09-19T01:44:10.325Z,18.13
2018-09-19T01:46:38.953Z,18.14
2018-09-19T01:49:07.783Z,18.13
2018-09-19T01:51:36.464Z,18.13
2018-09-19T01:54:06.089Z,18.11
2018-09-19T01:56:34.708Z,18.08
2018-09-19T01:59:04.157Z,18.10
2018-09-19T02:01:33.601Z,18.12
2018-09-19T02:04:02.461Z,18.06
2018-09-19T02:06:31.353Z,18.14
2018-09-19T02:09:00.213Z,18.15
2018-09-19T02:11:28.836Z,18.16
2018-09-19T02:13:57.516Z,18.15
2018-09-19T02:16:26.257Z,18.15
2018-09-19T02:18:54.945Z,18.14
2018-09-19T02:21:23.738Z,18.12
2018-09-19T02:23:52.396Z,18.10
2018-09-19T02:26:21.102Z,18.07
2018-09-19T02:28:50.401Z,18.04
2018-09-19T02:31:18.992Z,18.03
2018-09-19T02:33:47.593Z,18.00
2018-09-19T02:36:26.385Z,17.92
2018-09-19T02:38:56.879Z,17.91
2018-09-19T02:41:25.533Z,17.91
2018-09-19T02:43:54.158Z,17.88
2018-09-19T02:46:22.773Z,17.88
2018-09-19T02:48:51.425Z,17.82
2018-09-19T02:51:20.027Z,17.84
2018-09-19T02:53:48.935Z,17.80
2018-09-19T02:56:17.554Z,17.79
2018-09-19T02:58:46.339Z,17.76
2018-09-19T03:01:15.099Z,17.75
2018-09-19T03:03:43.712Z,17.77
2018-09-19T03:06:12.363Z,17.79
2018-09-19T03:08:41.016Z,17.78
2018-09-19T03:11:09.696Z,17.78
2018-09-19T03:13:38.429Z,17.77
2018-09-19T03:16:07.222Z,17.74
2018-09-19T03:18:36.010Z,17.69
2018-09-19T03:21:04.612Z,17.67
2018-09-19T03:23:33.444Z,17.65
2018-09-19T03:26:02.047Z,17.60
2018-09-19T03:28:30.750Z,17.54
2018-09-19T03:30:59.385Z,17.51
2018-09-19T03:33:27.993Z,17.40
2018-09-19T03:35:56.594Z,17.32
2018-09-19T03:38:25.233Z,17.24
2018-09-19T03:40:53.868Z,17.17
2018-09-19T03:43:22.612Z,17.19
2018-09-19T03:45:51.309Z,17.16
2018-09-19T03:48:19.914Z,17.13
2018-09-19T03:50:48.507Z,17.12
2018-09-19T03:53:17.205Z,16.99
2018-09-19T03:55:45.876Z,16.91
2018-09-19T03:58:15.285Z,16.86
2018-09-19T04:00:44.155Z,16.90
2018-09-19T04:03:12.786Z,16.92
2018-09-19T04:05:41.380Z,16.87
2018-09-19T04:08:10.102Z,16.79
2018-09-19T04:10:38.731Z,16.73
2018-09-19T04:13:07.377Z,16.77
2018-09-19T04:15:36.143Z,16.83
2018-09-19T04:18:04.807Z,16.77
2018-09-19T04:20:33.449Z,16.72
2018-09-19T04:23:02.033Z,16.70
2018-09-19T04:25:30.804Z,16.67
2018-09-19T04:27:59.406Z,16.61
2018-09-19T04:30:27.997Z,16.59
2018-09-19T04:32:56.632Z,16.59
2018-09-19T04:35:25.328Z,16.58
2018-09-19T04:37:53.920Z,16.58
2018-09-19T04:40:22.530Z,16.55
2018-09-19T04:42:51.143Z,16.57
2018-09-19T04:45:19.993Z,16.56
2018-09-19T04:47:48.752Z,16.55
2018-09-19T04:50:17.436Z,16.53
2018-09-19T04:52:46.944Z,16.51
2018-09-19T04:55:15.868Z,16.58
2018-09-19T04:57:44.497Z,16.62
2018-09-19T05:00:13.281Z,16.60
2018-09-19T05:02:42.667Z,16.66
2018-09-19T05:05:11.283Z,16.63
2018-09-19T05:07:39.884Z,16.64
2018-09-19T05:10:08.598Z,16.79
2018-09-19T05:12:37.192Z,16.91
2018-09-19T05:15:06.525Z,16.90
2018-09-19T05:17:35.128Z,17.01
2018-09-19T05:20:04.109Z,17.15
2018-09-19T05:22:32.749Z,17.25
2018-09-19T05:25:01.431Z,17.32
2018-09-19T05:27:30.042Z,17.37
2018-09-19T05:29:58.688Z,17.49
2018-09-19T05:32:27.339Z,17.60
2018-09-19T05:34:56.066Z,17.80
2018-09-19T05:37:24.672Z,17.94
2018-09-19T05:39:53.265Z,18.09
2018-09-19T05:42:22.263Z,18.20
2018-09-19T05:44:50.904Z,18.36
2018-09-19T05:47:19.574Z,18.57
2018-09-19T05:49:48.999Z,18.75
2018-09-19T05:52:17.796Z,18.90
2018-09-19T05:54:52.205Z,18.99
2018-09-19T05:57:21.165Z,19.07
2018-09-19T05:59:50.513Z,19.19
2018-09-19T06:02:19.171Z,19.74
2018-09-19T06:04:48.306Z,20.63
2018-09-19T06:07:17.708Z,21.38
2018-09-19T06:09:47.356Z,22.33
2018-09-19T06:12:16.595Z,23.48
2018-09-19T06:14:46.284Z,24.39
2018-09-19T06:17:15.609Z,24.91
2018-09-19T06:19:44.891Z,25.43
2018-09-19T06:22:14.089Z,26.22
2018-09-19T06:24:43.330Z,27.14
2018-09-19T06:27:12.750Z,28.14
2018-09-19T06:29:41.960Z,29.03
2018-09-19T06:32:11.214Z,29.73
2018-09-19T06:34:40.463Z,30.16
2018-09-19T06:37:09.843Z,30.42
2018-09-19T06:39:39.646Z,31.40
2018-09-19T06:42:08.868Z,31.72
2018-09-19T06:44:38.133Z,32.14
2018-09-19T06:47:07.334Z,31.95
2018-09-19T06:49:36.544Z,31.25
2018-09-19T06:52:05.882Z,31.22
2018-09-19T06:54:35.209Z,31.45
2018-09-19T06:57:04.386Z,31.94
2018-09-19T06:59:33.577Z,32.26
2018-09-19T07:02:03.079Z,32.31
2018-09-19T07:04:32.247Z,32.28
2018-09-19T07:07:01.580Z,33.18
2018-09-19T07:09:30.791Z,32.79
2018-09-19T07:11:59.961Z,32.67
2018-09-19T07:14:29.160Z,32.86
2018-09-19T07:16:58.404Z,32.90
2018-09-19T07:19:27.560Z,33.28
2018-09-19T07:21:56.751Z,34.40
2018-09-19T07:24:25.980Z,33.65
2018-09-19T07:26:55.358Z,33.64
2018-09-19T07:29:24.828Z,33.98
2018-09-19T07:31:54.001Z,34.19
2018-09-19T07:34:23.283Z,34.81
2018-09-19T07:36:52.448Z,34.86
2018-09-19T07:39:21.810Z,34.99
2018-09-19T07:41:50.979Z,34.64
2018-09-19T07:44:20.198Z,34.83
2018-09-19T07:46:49.369Z,35.25
2018-09-19T07:49:18.634Z,36.40
2018-09-19T07:51:47.850Z,37.54
2018-09-19T07:54:17.137Z,37.67
2018-09-19T07:56:46.390Z,38.29
2018-09-19T07:59:15.624Z,37.30
2018-09-19T08:01:44.800Z,37.03
2018-09-19T08:04:14.051Z,37.12
2018-09-19T08:06:43.592Z,38.27
2018-09-19T08:09:12.604Z,39.17
2018-09-19T08:11:42.352Z,39.82
2018-09-19T08:14:11.482Z,40.08
2018-09-19T08:16:40.955Z,39.88
2018-09-19T08:19:10.191Z,39.82
2018-09-19T08:21:39.385Z,39.92
2018-09-19T08:24:08.590Z,39.99
2018-09-19T08:26:37.786Z,40.30
2018-09-19T08:29:06.994Z,41.01
2018-09-19T08:31:35.915Z,40.77
2018-09-19T08:34:05.097Z,40.45
2018-09-19T08:36:34.358Z,39.70
2018-09-19T08:39:04.142Z,38.63
2018-09-19T08:41:33.544Z,36.95
2018-09-19T08:44:02.786Z,35.68
2018-09-19T08:46:31.942Z,34.88
2018-09-19T08:49:01.433Z,34.26
2018-09-19T08:51:30.604Z,33.76
2018-09-19T08:53:59.796Z,33.29
2018-09-19T08:56:29.150Z,32.83
2018-09-19T08:58:58.336Z,32.52
2018-09-19T09:01:27.580Z,32.29
2018-09-19T09:03:56.760Z,32.06
2018-09-19T09:06:25.946Z,31.63
2018-09-19T09:08:55.235Z,31.47
2018-09-19T09:11:24.435Z,31.13
2018-09-19T09:13:53.648Z,30.87
2018-09-19T09:16:22.905Z,30.88
2018-09-19T09:18:52.096Z,30.87
2018-09-19T09:21:21.335Z,30.85
2018-09-19T09:23:50.508Z,30.86
2018-09-19T09:26:19.736Z,30.79
2018-09-19T09:28:48.920Z,30.71
2018-09-19T09:31:18.154Z,30.64
2018-09-19T09:33:47.484Z,30.60
2018-09-19T09:36:16.670Z,30.47
2018-09-19T09:38:45.915Z,30.38
2018-09-19T09:41:15.108Z,30.31
2018-09-19T09:43:44.281Z,30.25
2018-09-19T09:46:13.453Z,30.12
2018-09-19T09:48:42.686Z,30.01
2018-09-19T09:51:11.939Z,29.93
2018-09-19T09:53:41.217Z,29.85
2018-09-19T09:56:10.556Z,29.84
2018-09-19T09:58:40.003Z,29.81
2018-09-19T10:01:09.307Z,29.78
2018-09-19T10:03:38.720Z,29.72
2018-09-19T10:06:07.904Z,29.67
2018-09-19T10:08:37.135Z,29.63
2018-09-19T10:11:06.967Z,29.65
2018-09-19T10:13:36.232Z,29.66
2018-09-19T10:16:05.416Z,29.68
2018-09-19T10:18:34.584Z,29.70
2018-09-19T10:21:03.873Z,29.66
2018-09-19T10:23:33.141Z,29.63
2018-09-19T10:26:02.414Z,29.64
2018-09-19T10:28:31.720Z,29.66
2018-09-19T10:31:00.872Z,29.68
2018-09-19T10:33:30.066Z,29.71
2018-09-19T10:35:59.258Z,29.66
2018-09-19T10:38:28.422Z,29.66
2018-09-19T10:40:57.601Z,29.63
2018-09-19T10:43:26.774Z,29.55
2018-09-19T10:45:55.983Z,29.57
2018-09-19T10:48:25.147Z,29.57
2018-09-19T10:50:54.324Z,29.49
2018-09-19T10:53:23.484Z,29.30
2018-09-19T10:55:52.692Z,29.27
2018-09-19T10:58:22.028Z,29.26
2018-09-19T11:00:51.201Z,29.18
2018-09-19T11:03:20.456Z,29.17
2018-09-19T11:05:49.658Z,29.22
2018-09-19T11:08:19.525Z,29.23
2018-09-19T11:10:48.752Z,29.21
2018-09-19T11:13:17.987Z,29.13
2018-09-19T11:15:47.152Z,29.13
2018-09-19T11:18:16.328Z,29.15
2018-09-19T11:20:45.556Z,29.22
2018-09-19T11:23:14.896Z,29.28
2018-09-19T11:25:44.060Z,29.34
2018-09-19T11:28:13.395Z,29.42
2018-09-19T11:30:42.598Z,29.48
2018-09-19T11:33:12.382Z,29.51
2018-09-19T11:35:41.632Z,29.52
2018-09-19T11:38:10.896Z,29.52
2018-09-19T11:40:40.728Z,29.50
2018-09-19T11:43:09.977Z,29.42
2018-09-19T11:45:39.216Z,29.40
2018-09-19T11:48:08.481Z,29.41
2018-09-19T11:50:37.703Z,29.32
2018-09-19T11:53:11.053Z,29.27
2018-09-19T11:55:40.235Z,29.26
2018-09-19T11:58:09.596Z,29.28
2018-09-19T12:00:38.852Z,29.30
2018-09-19T12:03:08.073Z,29.30
2018-09-19T12:05:37.295Z,29.29
2018-09-19T12:08:06.955Z,29.33
2018-09-19T12:10:36.529Z,29.40
2018-09-19T12:13:06.128Z,29.37
2018-09-19T12:15:35.967Z,29.29
2018-09-19T12:18:05.227Z,29.30
2018-09-19T12:20:34.393Z,29.29
2018-09-19T12:23:03.622Z,29.30
2018-09-19T12:25:32.842Z,29.31
2018-09-19T12:28:02.033Z,29.38
2018-09-19T12:30:31.248Z,29.41
2018-09-19T12:33:00.864Z,29.42
2018-09-19T12:35:30.093Z,29.43
2018-09-19T12:37:59.357Z,29.41
2018-09-19T12:40:28.700Z,29.30
2018-09-19T12:42:57.965Z,29.33
2018-09-19T12:45:27.136Z,29.34
2018-09-19T12:47:56.384Z,29.30
2018-09-19T12:50:25.581Z,29.34
2018-09-19T12:52:54.758Z,29.41
2018-09-19T12:55:24.068Z,29.38
2018-09-19T12:57:53.273Z,29.32
2018-09-19T13:00:22.660Z,29.40
2018-09-19T13:02:51.858Z,29.40
2018-09-19T13:05:21.089Z,29.38
2018-09-19T13:07:50.318Z,29.34
2018-09-19T13:10:19.525Z,29.36
2018-09-19T13:12:48.703Z,29.38
2018-09-19T13:15:17.892Z,29.37
2018-09-19T13:17:47.295Z,29.42
2018-09-19T13:20:16.504Z,29.48
2018-09-19T13:22:45.678Z,29.48
2018-09-19T13:25:14.993Z,29.49
2018-09-19T13:27:44.173Z,29.45
2018-09-19T13:30:13.425Z,29.46
2018-09-19T13:32:42.668Z,29.45
2018-09-19T13:35:11.845Z,29.47
2018-09-19T13:37:41.058Z,29.48
2018-09-19T13:40:16.264Z,29.47
2018-09-19T13:42:46.014Z,29.46
2018-09-19T13:45:15.249Z,29.51
2018-09-19T13:47:44.424Z,29.52
2018-09-19T13:50:18.698Z,29.50
2018-09-19T13:52:47.867Z,29.46
2018-09-19T13:55:17.065Z,29.44
2018-09-19T13:57:46.277Z,29.41
2018-09-19T14:00:15.483Z,29.42
2018-09-19T14:02:44.700Z,29.40
2018-09-19T14:05:15.179Z,29.37
2018-09-19T14:07:44.483Z,29.35
2018-09-19T14:10:13.693Z,29.31
2018-09-19T14:12:42.911Z,29.23
2018-09-19T14:15:12.157Z,29.22
2018-09-19T14:17:41.397Z,29.26
2018-09-19T14:20:10.624Z,29.19
2018-09-19T14:22:39.928Z,29.16
2018-09-19T14:25:09.449Z,29.13
2018-09-19T14:27:38.690Z,29.08
2018-09-19T14:30:07.934Z,28.94
2018-09-19T14:32:37.137Z,28.87
2018-09-19T14:35:06.321Z,28.78
2018-09-19T14:37:36.552Z,28.67
2018-09-19T14:40:06.108Z,28.56
2018-09-19T14:42:35.572Z,28.42
2018-09-19T14:45:05.483Z,28.31
2018-09-19T14:47:34.715Z,28.25
2018-09-19T14:50:04.220Z,28.32
2018-09-19T14:52:33.394Z,28.20
2018-09-19T14:55:02.630Z,28.10
2018-09-19T14:57:31.807Z,28.01
2018-09-19T15:00:00.999Z,27.91
2018-09-19T15:02:30.196Z,27.82
2018-09-19T15:04:59.736Z,27.79
2018-09-19T15:07:28.960Z,27.75
2018-09-19T15:09:58.156Z,27.74
2018-09-19T15:12:27.344Z,27.77
2018-09-19T15:14:56.643Z,27.75
2018-09-19T15:17:25.812Z,27.68
2018-09-19T15:19:55.041Z,27.60
2018-09-19T15:22:24.236Z,27.48
2018-09-19T15:24:54.211Z,27.41
2018-09-19T15:27:23.512Z,27.33
2018-09-19T15:29:52.676Z,27.26
2018-09-19T15:32:21.897Z,27.25
2018-09-19T15:34:51.065Z,27.30
2018-09-19T15:37:20.239Z,27.33
2018-09-19T15:39:49.416Z,27.30
2018-09-19T15:42:18.599Z,27.24
2018-09-19T15:44:47.824Z,27.25
2018-09-19T15:47:18.286Z,27.17
2018-09-19T15:49:47.531Z,27.07
2018-09-19T15:52:16.805Z,27.00
2018-09-19T15:54:45.993Z,26.94
2018-09-19T15:57:15.246Z,26.88
2018-09-19T15:59:44.657Z,26.83
2018-09-19T16:02:13.886Z,26.73
2018-09-19T16:04:43.169Z,26.62
2018-09-19T16:07:12.536Z,26.41
2018-09-19T16:09:41.715Z,26.28
2018-09-19T16:12:10.954Z,26.11
2018-09-19T16:14:40.252Z,25.97
2018-09-19T16:17:09.473Z,25.81
2018-09-19T16:19:38.686Z,25.70
2018-09-19T16:22:07.881Z,25.61
2018-09-19T16:24:37.110Z,25.39
2018-09-19T16:27:06.717Z,25.26
2018-09-19T16:29:35.909Z,25.18
2018-09-19T16:32:05.098Z,25.05
2018-09-19T16:34:34.293Z,24.93
2018-09-19T16:37:03.524Z,24.77
2018-09-19T16:39:33.081Z,24.64
2018-09-19T16:42:02.340Z,24.55
2018-09-19T16:44:31.557Z,24.43
2018-09-19T16:47:01.131Z,24.31
2018-09-19T16:49:30.716Z,24.16
2018-09-19T16:52:00.136Z,23.98
2018-09-19T16:54:29.308Z,23.93
2018-09-19T16:56:58.713Z,23.85
2018-09-19T16:59:27.972Z,23.94
2018-09-19T17:01:57.197Z,23.84
2018-09-19T17:04:26.480Z,23.62
2018-09-19T17:06:55.682Z,23.41
2018-09-19T17:09:24.856Z,23.17
2018-09-19T17:11:54.043Z,23.09
2018-09-19T17:14:23.235Z,22.99
2018-09-19T17:16:52.521Z,23.05
2018-09-19T17:19:21.713Z,23.03
2018-09-19T17:21:50.900Z,22.91
2018-09-19T17:24:20.132Z,22.89
2018-09-19T17:26:49.474Z,22.75
2018-09-19T17:29:19.269Z,22.56
2018-09-19T17:31:48.644Z,22.45
2018-09-19T17:34:17.916Z,22.28
2018-09-19T17:36:47.171Z,22.14
2018-09-19T17:39:16.377Z,22.13
2018-09-19T17:41:45.605Z,22.26
2018-09-19T17:44:15.176Z,22.49
2018-09-19T17:46:44.372Z,22.56
2018-09-19T17:49:13.610Z,22.51
2018-09-19T17:51:42.831Z,22.29
2018-09-19T17:54:12.837Z,22.11
2018-09-19T17:56:42.098Z,22.05
2018-09-19T17:59:11.303Z,21.99
2018-09-19T18:01:40.511Z,21.91
2018-09-19T18:04:09.725Z,21.81
2018-09-19T18:06:39.313Z,21.77
2018-09-19T18:09:08.384Z,21.84
2018-09-19T18:11:37.062Z,21.95
2018-09-19T18:14:05.832Z,21.82
2018-09-19T18:16:34.423Z,21.56
2018-09-19T18:19:03.101Z,21.31
2018-09-19T18:21:31.713Z,21.11
2018-09-19T18:24:00.995Z,21.05
2018-09-19T18:26:30.183Z,21.27
2018-09-19T18:28:59.425Z,21.34
2018-09-19T18:31:28.691Z,21.27
2018-09-19T18:34:05.183Z,21.24
2018-09-19T18:36:34.410Z,21.29
2018-09-19T18:39:03.986Z,21.40
2018-09-19T18:41:33.173Z,21.29
2018-09-19T18:44:02.399Z,21.10
2018-09-19T18:46:31.846Z,21.03
2018-09-19T18:49:01.310Z,20.82
2018-09-19T18:51:30.561Z,20.61
2018-09-19T18:53:59.831Z,20.41
2018-09-19T18:56:29.022Z,20.49
2018-09-19T18:58:58.284Z,20.51
2018-09-19T19:01:27.715Z,20.51
2018-09-19T19:03:56.935Z,20.52
2018-09-19T19:06:27.016Z,20.46
2018-09-19T19:08:56.256Z,20.44
2018-09-19T19:11:25.564Z,20.32
2018-09-19T19:13:54.963Z,20.16
2018-09-19T19:16:24.217Z,20.06
2018-09-19T19:18:53.946Z,19.95
2018-09-19T19:21:23.201Z,19.78
2018-09-19T19:23:52.566Z,19.67
2018-09-19T19:26:21.838Z,19.56
2018-09-19T19:28:51.069Z,19.47
2018-09-19T19:31:20.316Z,19.42
2018-09-19T19:33:49.742Z,19.44
2018-09-19T19:36:18.991Z,19.35
2018-09-19T19:38:48.300Z,19.24
2018-09-19T19:41:17.523Z,19.15
2018-09-19T19:43:46.788Z,19.21
2018-09-19T19:46:16.179Z,19.25
2018-09-19T19:48:45.449Z,19.23
2018-09-19T19:51:14.207Z,19.22
2018-09-19T19:53:42.854Z,19.12
2018-09-19T19:56:11.605Z,19.06
2018-09-19T19:58:40.259Z,18.97
2018-09-19T20:01:08.917Z,18.84
2018-09-19T20:03:37.639Z,18.76
2018-09-19T20:06:06.743Z,18.78
2018-09-19T20:08:35.443Z,18.88
2018-09-19T20:11:04.109Z,18.83
2018-09-19T20:13:32.859Z,18.76
2018-09-19T20:16:01.535Z,18.67
2018-09-19T20:18:30.263Z,18.63
2018-09-19T20:20:58.975Z,18.91
2018-09-19T20:23:27.845Z,19.06
2018-09-19T20:25:56.525Z,19.01
2018-09-19T20:28:25.226Z,18.93
2018-09-19T20:30:54.909Z,18.82
2018-09-19T20:33:23.572Z,18.80
2018-09-19T20:35:52.296Z,18.73
2018-09-19T20:38:21.217Z,18.82
2018-09-19T20:40:49.886Z,18.75
2018-09-19T20:43:18.541Z,18.66
2018-09-19T20:45:57.020Z,18.54
2018-09-19T20:48:33.062Z,18.39
2018-09-19T20:51:03.238Z,18.30
2018-09-19T20:53:31.908Z,18.37
2018-09-19T20:56:00.582Z,18.32
2018-09-19T20:58:29.271Z,18.17
2018-09-19T21:00:58.270Z,18.04
2018-09-19T21:03:26.980Z,17.93
2018-09-19T21:05:55.669Z,17.87
2018-09-19T21:08:24.331Z,17.92
2018-09-19T21:10:53.078Z,18.00
2018-09-19T21:13:21.917Z,18.06
2018-09-19T21:15:50.669Z,18.00
2018-09-19T21:18:19.389Z,17.96
2018-09-19T21:20:48.076Z,17.85
2018-09-19T21:23:16.790Z,17.76
2018-09-19T21:25:45.722Z,17.65
2018-09-19T21:28:14.430Z,17.55
2018-09-19T21:30:43.287Z,17.54
2018-09-19T21:33:11.936Z,17.46
2018-09-19T21:35:40.609Z,17.41
2018-09-19T21:38:09.338Z,17.34
2018-09-19T21:40:38.642Z,17.30
2018-09-19T21:43:07.502Z,17.45
2018-09-19T21:45:36.493Z,17.50
2018-09-19T21:48:05.281Z,17.47
2018-09-19T21:50:34.301Z,17.27
2018-09-19T21:53:02.977Z,17.11
2018-09-19T21:55:31.629Z,17.02
2018-09-19T21:58:00.359Z,16.90
2018-09-19T22:00:29.852Z,16.82
2018-09-19T22:02:59.014Z,16.91
2018-09-19T22:05:28.179Z,16.82
2018-09-19T22:07:56.918Z,16.73
2018-09-19T22:10:25.648Z,16.70
2018-09-19T22:12:55.181Z,16.82
2018-09-19T22:15:24.183Z,16.92
2018-09-19T22:17:54.613Z,16.89
2018-09-19T22:20:23.348Z,16.87
2018-09-19T22:22:52.195Z,16.80
2018-09-19T22:25:21.941Z,16.76
2018-09-19T22:27:50.763Z,16.73
2018-09-19T22:30:19.415Z,16.90
2018-09-19T22:32:48.151Z,16.95
2018-09-19T22:35:16.785Z,16.92
2018-09-19T22:37:45.469Z,16.86
2018-09-19T22:40:14.244Z,16.87
2018-09-19T22:42:42.899Z,16.92
2018-09-19T22:45:11.689Z,16.85
2018-09-19T22:47:40.554Z,16.81
2018-09-19T22:50:09.247Z,16.73
2018-09-19T22:52:37.930Z,16.75
2018-09-19T22:55:06.691Z,16.68
2018-09-19T22:57:35.367Z,16.62
2018-09-19T23:00:04.345Z,16.69
2018-09-19T23:02:32.977Z,16.69
2018-09-19T23:05:01.689Z,16.57
2018-09-19T23:07:30.356Z,16.49
2018-09-19T23:09:58.994Z,16.46
2018-09-19T23:12:27.687Z,16.41
2018-09-19T23:14:56.342Z,16.35
2018-09-19T23:17:25.034Z,16.38
2018-09-19T23:19:53.740Z,16.36
2018-09-19T23:22:22.452Z,16.35
2018-09-19T23:24:51.142Z,16.37
2018-09-19T23:27:19.774Z,16.51
2018-09-19T23:29:48.608Z,16.46
2018-09-19T23:32:17.269Z,16.28
2018-09-19T23:34:45.958Z,16.47
2018-09-19T23:37:14.840Z,16.43
2018-09-19T23:39:43.485Z,16.42
2018-09-19T23:42:12.173Z,16.49
2018-09-19T23:44:41.057Z,16.33
2018-09-19T23:47:09.717Z,16.17
2018-09-19T23:49:38.379Z,16.04
2018-09-19T23:52:07.140Z,15.91
2018-09-19T23:54:36.432Z,15.82
2018-09-19T23:57:05.119Z,15.75
2018-09-19T23:59:33.837Z,15.72
